Data for 10/03/2015

Time Sea-Level Adjusted Pressure Absolute Pressure Temperature Relative Humidity Dew Point   
(mb) (inHg) (mb) (inHg) (C) (F) (%) (C) (F)
00:05 1014 29.94 843 24.89 9.6 49.3 74 5.3 41.5
00:10 1014 29.94 843 24.89 9.5 49.1 76 5.5 41.9
00:15 1014 29.94 844 24.92 9.4 48.9 77 5.5 41.9
00:20 1014 29.94 844 24.92 9.2 48.5 78 5.6 42
00:25 1014 29.94 844 24.92 9 48.2 78 5.4 41.8
00:30 1014 29.94 844 24.92 9 48.2 78 5.5 41.8
00:35 1014 29.94 844 24.92 9 48.1 79 5.5 41.9
00:40 1014 29.94 844 24.92 8.8 47.9 79 5.4 41.6
00:45 1014 29.94 844 24.92 8.7 47.7 78 5.2 41.3
00:50 1014 29.94 844 24.92 8.8 47.8 77 5.1 41.1
00:55 1014 29.94 844 24.92 8.9 48 77 5 41
01:00 1014 29.94 844 24.92 9 48.1 76 5 40.9
01:05 1014 29.94 844 24.92 9.2 48.5 75 4.9 40.9
01:10 1014 29.94 844 24.92 9.1 48.4 75 5 41
01:15 1014 29.94 844 24.92 9.2 48.6 77 5.3 41.6
01:20 1015 29.97 844 24.92 9.2 48.6 77 5.4 41.7
01:25 1015 29.97 844 24.92 9.3 48.8 77 5.5 41.8
01:30 1015 29.97 844 24.92 9.5 49.1 76 5.4 41.8
01:35 1015 29.97 844 24.92 9.6 49.3 76 5.6 42
01:40 1015 29.97 844 24.92 9.6 49.3 75 5.5 41.9
01:45 1015 29.97 844 24.92 9.7 49.5 74 5.4 41.8
01:50 1015 29.97 844 24.92 9.9 49.9 73 5.4 41.7
01:55 1015 29.97 844 24.92 10.2 50.3 73 5.5 41.9
02:00 1015 29.97 844 24.92 10.2 50.4 72 5.4 41.8
02:05 1015 29.97 844 24.92 10.2 50.4 73 5.6 42.1
02:10 1015 29.97 844 24.92 10 50 74 5.7 42.2
02:15 1015 29.97 844 24.92 9.9 49.8 75 5.6 42.1
02:20 1015 29.97 844 24.92 9.9 49.9 72 5.2 41.3
02:25 1015 29.97 844 24.92 10.3 50.5 70 5 41.1
02:30 1014 29.94 844 24.92 10.5 50.9 69 5.1 41.3
02:35 1014 29.94 844 24.92 10.6 51 69 5.1 41.3
02:40 1014 29.94 844 24.92 10.7 51.2 68 5 40.9
02:45 1014 29.94 844 24.92 10.8 51.4 71 5.7 42.3
02:50 1014 29.94 844 24.92 10.3 50.5 74 5.9 42.7
02:55 1014 29.94 844 24.92 10 50 74 5.7 42.2
03:00 1014 29.94 844 24.92 9.9 49.8 75 5.7 42.3
03:05 1014 29.94 844 24.92 9.8 49.6 76 5.8 42.4
03:10 1014 29.94 844 24.92 9.6 49.3 77 5.8 42.4
03:15 1014 29.94 844 24.92 9.5 49.1 77 5.7 42.2
03:20 1014 29.94 844 24.92 9.5 49.1 77 5.7 42.3
03:25 1014 29.94 844 24.92 9.5 49 77 5.7 42.3
03:30 1014 29.94 844 24.92 9.5 49.1 78 5.8 42.5
03:35 1014 29.94 844 24.92 9.6 49.2 77 5.7 42.3
03:40 1014 29.94 844 24.92 9.7 49.4 76 5.6 42
03:45 1014 29.94 844 24.92 9.7 49.5 77 5.9 42.5
03:50 1014 29.94 844 24.92 9.7 49.4 78 5.9 42.7
03:55 1014 29.94 844 24.92 9.6 49.2 78 5.9 42.7
04:00 1014 29.94 844 24.92 9.7 49.4 76 5.7 42.2
04:05 1014 29.94 844 24.92 9.8 49.7 75 5.6 42.2
04:10 1014 29.94 844 24.92 9.9 49.9 75 5.6 42.2
04:15 1014 29.94 844 24.92 10 50 74 5.7 42.2
04:20 1014 29.94 844 24.92 10 49.9 75 5.7 42.3
04:25 1014 29.94 844 24.92 10 49.9 75 5.7 42.3
04:30 1014 29.94 844 24.92 9.9 49.9 76 5.9 42.6
04:35 1014 29.94 844 24.92 9.8 49.7 77 6 42.9
04:40 1014 29.94 844 24.92 9.8 49.6 78 6.1 43.1
04:45 1014 29.94 844 24.92 9.7 49.4 79 6.2 43.2
04:50 1014 29.94 844 24.92 9.6 49.2 80 6.3 43.4
04:55 1014 29.94 844 24.92 9.5 49 81 6.3 43.4
05:00 1014 29.94 844 24.92 9.4 48.9 81 6.4 43.5
05:05 1014 29.94 844 24.92 9.2 48.6 83 6.5 43.7
05:10 1014 29.94 844 24.92 9.1 48.4 84 6.5 43.8
05:15 1014 29.94 844 24.92 9 48.2 85 6.6 43.9
05:20 1014 29.94 844 24.92 8.9 48 86 6.7 44.1
05:25 1014 29.94 844 24.92 8.8 47.9 87 6.8 44.2
05:30 1014 29.94 844 24.92 8.7 47.7 87 6.7 44.1
05:35 1014 29.94 844 24.92 8.7 47.7 88 6.8 44.2
05:40 1014 29.94 844 24.92 8.7 47.7 88 6.8 44.3
05:45 1015 29.97 844 24.92 8.7 47.6 88 6.8 44.3
05:50 1015 29.97 844 24.92 8.7 47.6 89 6.9 44.4
05:55 1015 29.97 844 24.92 8.7 47.6 89 7 44.5
06:00 1015 29.97 844 24.92 8.6 47.6 89 7 44.6
06:05 1015 29.97 844 24.92 8.6 47.5 90 7 44.6
06:10 1015 29.97 844 24.92 8.6 47.5 90 7 44.6
06:15 1015 29.97 844 24.92 8.6 47.5 90 7 44.6
06:20 1015 29.97 844 24.92 8.6 47.5 90 7 44.7
06:25 1015 29.97 844 24.92 8.6 47.5 90 7 44.6
06:30 1015 29.97 844 24.92 8.7 47.6 90 7 44.7
06:35 1015 29.97 844 24.92 8.7 47.6 89 7 44.5
06:40 1015 29.97 844 24.92 8.6 47.5 86 6.3 43.4
06:45 1015 29.97 844 24.92 8.4 47.1 83 5.8 42.4
06:50 1015 29.97 844 24.92 8.2 46.7 82 5.3 41.6
06:55 1015 29.97 844 24.92 7.8 46 82 5 40.9
07:00 1015 29.97 845 24.95 7.4 45.4 81 4.5 40
07:05 1015 29.97 845 24.95 7 44.6 82 4.1 39.4
07:10 1015 29.97 845 24.95 6.8 44.2 81 3.8 38.8
07:15 1016 30 845 24.95 6.4 43.6 81 3.5 38.3
07:20 1016 30 845 24.95 6.4 43.4 81 3.3 37.9
07:25 1016 30 845 24.95 6.1 43 81 3.1 37.6
07:30 1016 30 845 24.95 5.9 42.7 84 3.4 38.2
07:35 1016 30 845 24.95 5.7 42.3 85 3.3 38
07:40 1016 30 845 24.95 5.6 42 82 2.8 37
07:45 1016 30 845 24.95 5.4 41.7 83 2.7 36.9
07:50 1016 30 846 24.98 5.2 41.4 85 2.9 37.2
07:55 1016 30 846 24.98 4.8 40.6 87 2.7 36.9
08:00 1016 30 846 24.98 4.6 40.2 86 2.4 36.3
08:05 1016 30 846 24.98 4.2 39.6 88 2.4 36.2
08:10 1017 30.03 846 24.98 4.1 39.3 87 2.1 35.7
08:15 1017 30.03 846 24.98 3.9 39.1 87 2 35.7
08:20 1017 30.03 846 24.98 3.9 39.1 87 2 35.7
08:25 1017 30.03 846 24.98 3.9 39 87 1.9 35.3
08:30 1017 30.03 846 24.98 3.8 38.9 87 1.9 35.4
08:35 1017 30.03 846 24.98 3.8 38.9 87 1.9 35.4
08:40 1017 30.03 846 24.98 3.8 38.8 87 1.8 35.2
08:45 1017 30.03 846 24.98 3.8 38.9 87 1.9 35.4
08:50 1017 30.03 846 24.98 3.8 38.8 87 1.8 35.2
08:55 1017 30.03 846 24.98 3.8 38.8 86 1.6 34.9
09:00 1017 30.03 847 25.01 3.7 38.6 86 1.5 34.7
09:05 1017 30.03 847 25.01 3.6 38.4 86 1.4 34.5
09:10 1018 30.06 847 25.01 3.6 38.4 86 1.4 34.5
09:15 1018 30.06 847 25.01 3.5 38.3 85 1.3 34.3
09:20 1018 30.06 847 25.01 3.4 38.1 85 1.1 34
09:25 1018 30.06 847 25.01 3.3 37.9 85 1 33.9
09:30 1018 30.06 847 25.01 3.2 37.8 86 1.1 34
09:35 1018 30.06 847 25.01 3.2 37.8 86 1.1 34
09:40 1018 30.06 847 25.01 3.3 38 86 1.2 34.2
09:45 1018 30.06 847 25.01 3.4 38 86 1.2 34.2
09:50 1018 30.06 847 25.01 3.3 38 86 1.2 34.2
09:55 1018 30.06 847 25.01 3.4 38 86 1.2 34.1
10:00 1018 30.06 847 25.01 3.2 37.8 85 1 33.8
10:05 1018 30.06 847 25.01 3.1 37.5 86 1 33.8
10:10 1018 30.06 847 25.01 3 37.4 87 1.1 34
10:15 1018 30.06 847 25.01 3 37.3 86 0.9 33.7
10:20 1018 30.06 847 25.01 2.8 37.1 87 0.9 33.6
10:25 1018 30.06 847 25.01 2.8 37.1 87 0.8 33.5
10:30 1018 30.06 847 25.01 2.9 37.3 87 1 33.8
10:35 1018 30.06 847 25.01 3 37.4 87 1 33.8
10:40 1018 30.06 848 25.04 3.1 37.6 87 1.2 34.2
10:45 1018 30.06 848 25.04 3.2 37.8 85 1 33.8
10:50 1019 30.09 848 25.04 3.1 37.6 85 0.9 33.6
10:55 1019 30.09 848 25.04 3 37.4 86 0.9 33.7
11:00 1019 30.09 848 25.04 3 37.3 86 0.9 33.6
11:05 1019 30.09 848 25.04 2.9 37.2 87 1 33.8
11:10 1019 30.09 848 25.04 3 37.3 87 1 33.9
11:15 1019 30.09 848 25.04 3.1 37.6 87 1.1 34
11:20 1019 30.09 848 25.04 3.2 37.7 86 1.1 33.9
11:25 1019 30.09 848 25.04 3 37.5 88 1.2 34.1
11:30 1019 30.09 848 25.04 3.1 37.5 86 0.9 33.7
11:35 1019 30.09 848 25.04 3.2 37.8 85 0.9 33.7
11:40 1019 30.09 848 25.04 3.2 37.8 86 1 33.8
11:45 1019 30.09 848 25.04 3.2 37.8 85 1 33.9
11:50 1019 30.09 848 25.04 3.1 37.6 87 1.2 34.1
11:55 1019 30.09 848 25.04 2.9 37.3 89 1.2 34.2
12:00 1019 30.09 848 25.04 2.9 37.1 89 1.2 34.1
12:05 1019 30.09 848 25.04 2.8 37 88 0.9 33.7
12:10 1019 30.09 848 25.04 2.8 37.1 88 1 33.8
12:15 1019 30.09 848 25.04 2.7 36.8 88 0.9 33.7
12:20 1019 30.09 848 25.04 2.7 36.8 89 0.9 33.7
12:25 1019 30.09 848 25.04 2.6 36.7 88 0.9 33.5
12:30 1019 30.09 848 25.04 2.7 36.8 88 0.8 33.5
12:35 1019 30.09 848 25.04 2.6 36.7 88 0.9 33.6
12:40 1019 30.09 848 25.04 2.6 36.7 89 1 33.8
12:45 1019 30.09 848 25.04 2.6 36.6 89 0.9 33.6
12:50 1019 30.09 848 25.04 2.6 36.7 89 0.9 33.6
12:55 1019 30.09 848 25.04 2.6 36.7 88 0.9 33.6
13:00 1019 30.09 849 25.07 2.6 36.7 89 1 33.7
13:05 1019 30.09 849 25.07 2.7 36.8 89 1 33.8
13:10 1019 30.09 849 25.07 2.7 36.9 88 0.9 33.6
13:15 1019 30.09 849 25.07 2.8 37.1 88 1.1 33.9
13:20 1019 30.09 849 25.07 2.8 37 88 1 33.8
13:25 1019 30.09 849 25.07 2.8 37.1 89 1.1 34.1
13:30 1019 30.09 849 25.07 2.9 37.3 89 1.3 34.3
13:35 1020 30.12 849 25.07 2.8 37.1 89 1.1 34
13:40 1019 30.09 849 25.07 2.9 37.3 88 1.2 34.2
13:45 1020 30.12 849 25.07 3.1 37.6 87 1.2 34.2
13:50 1020 30.12 849 25.07 3.3 37.9 88 1.4 34.5
13:55 1020 30.12 849 25.07 3.3 37.9 87 1.4 34.4
14:00 1020 30.12 849 25.07 3.2 37.8 88 1.4 34.5
14:05 1020 30.12 849 25.07 3.1 37.5 88 1.3 34.3
14:10 1020 30.12 849 25.07 3.1 37.6 87 1.2 34.2
14:15 1020 30.12 849 25.07 3.3 37.9 86 1.1 34
14:20 1020 30.12 849 25.07 3.3 38 87 1.3 34.3
14:25 1020 30.12 849 25.07 3.2 37.8 87 1.3 34.4
14:30 1020 30.12 849 25.07 3 37.5 87 1.1 34
14:35 1020 30.12 849 25.07 3 37.4 88 1.1 34.1
14:40 1020 30.12 849 25.07 3.1 37.5 87 1.1 34
14:45 1020 30.12 849 25.07 3.2 37.8 85 0.9 33.5
14:50 1020 30.12 849 25.07 3.4 38.1 80 0.2 32.3
14:55 1020 30.12 849 25.07 3.5 38.3 79 0.2 32.4
15:00 1020 30.12 849 25.07 3.7 38.7 82 1 33.7
15:05 1020 30.12 849 25.07 3.6 38.5 81 0.6 33.1
15:10 1020 30.12 849 25.07 3.5 38.4 80 0.5 32.8
15:15 1020 30.12 849 25.07 3.5 38.4 78 0 32.1
15:20 1020 30.12 849 25.07 3.6 38.4 77 -0 32
15:25 1020 30.12 849 25.07 3.7 38.7 78 0.2 32.4
15:30 1020 30.12 849 25.07 3.8 38.8 80 0.6 33.1
15:35 1020 30.12 849 25.07 3.7 38.7 81 0.7 33.3
15:40 1020 30.12 849 25.07 3.7 38.7 78 0.2 32.4
15:45 1020 30.12 849 25.07 3.6 38.5 82 0.9 33.6
15:50 1020 30.12 849 25.07 3.5 38.3 83 0.9 33.7
15:55 1020 30.12 849 25.07 3.6 38.4 82 0.8 33.4
16:00 1020 30.12 849 25.07 3.6 38.5 81 0.7 33.2
16:05 1020 30.12 850 25.1 3.6 38.5 80 0.4 32.8
16:10 1020 30.12 850 25.1 3.7 38.7 78 0.3 32.5
16:15 1020 30.12 850 25.1 3.7 38.7 79 0.4 32.8
16:20 1021 30.15 850 25.1 3.7 38.6 79 0.4 32.7
16:25 1021 30.15 850 25.1 3.6 38.5 79 0.3 32.6
16:30 1021 30.15 850 25.1 3.6 38.5 80 0.5 32.8
16:35 1021 30.15 850 25.1 3.7 38.6 81 0.8 33.4
16:40 1021 30.15 850 25.1 3.6 38.5 82 0.7 33.3
16:45 1021 30.15 850 25.1 3.6 38.6 80 0.5 32.9
16:50 1021 30.15 850 25.1 3.6 38.6 80 0.5 32.9
16:55 1021 30.15 850 25.1 3.6 38.5 83 0.9 33.7
17:00 1021 30.15 850 25.1 3.6 38.4 82 0.8 33.5
17:05 1021 30.15 850 25.1 3.5 38.3 82 0.8 33.4
17:10 1021 30.15 850 25.1 3.5 38.4 77 -0 31.9
17:15 1021 30.15 850 25.1 3.6 38.6 77 -0 32
17:20 1021 30.15 850 25.1 3.7 38.6 76 -0.2 31.7
17:25 1021 30.15 850 25.1 3.5 38.3 77 -0.1 31.9
17:30 1021 30.15 850 25.1 3.4 38.1 79 0.1 32.2
17:35 1021 30.15 850 25.1 3.3 38 80 0.2 32.3
17:40 1021 30.15 850 25.1 3.3 37.9 80 0.1 32.3
17:45 1021 30.15 850 25.1 3.3 37.9 79 0.1 32.1
17:50 1021 30.15 850 25.1 3.2 37.7 81 0.2 32.4
17:55 1021 30.15 850 25.1 3.1 37.6 81 0.2 32.4
18:00 1021 30.15 850 25.1 3 37.4 81 0.1 32.3
18:05 1021 30.15 850 25.1 3 37.4 81 0.1 32.2
18:10 1021 30.15 850 25.1 2.9 37.3 82 0.2 32.3
18:15 1021 30.15 851 25.13 2.9 37.3 83 0.3 32.6
18:20 1021 30.15 851 25.13 2.9 37.2 83 0.2 32.4
18:25 1021 30.15 851 25.13 2.8 37.1 83 0.2 32.4
18:30 1021 30.15 851 25.13 2.8 37 83 0.3 32.5
18:35 1021 30.15 851 25.13 2.8 37 83 0.2 32.4
18:40 1021 30.15 851 25.13 2.7 36.9 84 0.3 32.6
18:45 1021 30.15 851 25.13 2.7 36.8 83 0.1 32.1
18:50 1022 30.18 851 25.13 2.7 36.8 83 0.2 32.3
18:55 1022 30.18 851 25.13 2.6 36.7 84 0.2 32.3
19:00 1022 30.18 851 25.13 2.6 36.7 84 0.1 32.2
19:05 1022 30.18 851 25.13 2.6 36.7 83 0.1 32.2
19:10 1022 30.18 851 25.13 2.6 36.8 83 0.1 32.2
19:15 1022 30.18 851 25.13 2.7 36.9 83 0.1 32.1
19:20 1022 30.18 851 25.13 2.8 37.1 81 -0.2 31.6
19:25 1022 30.18 851 25.13 2.9 37.2 79 -0.5 31.1
19:30 1022 30.18 851 25.13 2.8 37.1 78 -0.5 31
19:35 1022 30.18 851 25.13 2.8 37.1 79 -0.5 31.1
19:40 1022 30.18 851 25.13 2.8 37 79 -0.6 31
19:45 1022 30.18 851 25.13 2.7 36.9 79 -0.6 30.9
19:50 1022 30.18 851 25.13 2.7 36.9 79 -0.6 30.9
19:55 1022 30.18 851 25.13 2.7 36.9 77 -0.9 30.4
20:00 1022 30.18 851 25.13 2.8 37 75 -1.2 29.8
20:05 1022 30.18 851 25.13 2.8 37 77 -0.8 30.5
20:10 1022 30.18 851 25.13 2.7 36.9 79 -0.6 30.9
20:15 1022 30.18 851 25.13 2.7 36.9 78 -0.7 30.8
20:20 1022 30.18 851 25.13 2.7 36.9 79 -0.6 30.9
20:25 1022 30.18 851 25.13 2.6 36.7 79 -0.6 30.9
20:30 1022 30.18 851 25.13 2.5 36.6 80 -0.6 30.8
20:35 1022 30.18 851 25.13 2.5 36.4 80 -0.7 30.7
20:40 1022 30.18 852 25.16 2.4 36.3 80 -0.7 30.7
20:45 1022 30.18 852 25.16 2.3 36.2 79 -0.9 30.4
20:50 1022 30.18 852 25.16 2.3 36.2 78 -1.1 30.1
20:55 1022 30.18 852 25.16 2.3 36.1 79 -1 30.2
21:00 1022 30.18 852 25.16 2.2 36 79 -1.1 30
21:05 1022 30.18 852 25.16 2.2 36 80 -1 30.3
21:10 1022 30.18 852 25.16 2.2 36 80 -0.9 30.3
21:15 1022 30.18 852 25.16 2.1 35.8 82 -0.7 30.8
21:20 1022 30.18 852 25.16 1.9 35.3 82 -0.8 30.5
21:25 1022 30.18 852 25.16 1.7 35.1 83 -0.9 30.4
21:30 1023 30.21 852 25.16 1.6 34.9 84 -0.8 30.6
21:35 1023 30.21 852 25.16 1.6 34.9 85 -0.6 30.9
21:40 1023 30.21 852 25.16 1.5 34.7 86 -0.6 30.9
21:45 1023 30.21 852 25.16 1.4 34.5 86 -0.6 30.9
21:50 1023 30.21 852 25.16 1.3 34.3 87 -0.7 30.8
21:55 1023 30.21 852 25.16 1.1 34 88 -0.7 30.8
22:00 1023 30.21 852 25.16 1 33.7 90 -0.5 31
22:05 1023 30.21 852 25.16 0.9 33.6 90 -0.5 31
22:10 1023 30.21 852 25.16 0.8 33.4 90 -0.6 30.9
22:15 1023 30.21 852 25.16 0.8 33.4 91 -0.6 31
22:20 1023 30.21 852 25.16 0.8 33.4 91 -0.6 31
22:25 1023 30.21 852 25.16 0.8 33.4 91 -0.6 31
22:30 1023 30.21 852 25.16 0.7 33.3 91 -0.6 30.9
22:35 1023 30.21 852 25.16 0.7 33.3 91 -0.6 30.9
22:40 1023 30.21 852 25.16 0.7 33.3 91 -0.7 30.8
22:45 1023 30.21 852 25.16 0.7 33.3 90 -0.7 30.8
22:50 1023 30.21 852 25.16 0.7 33.3 90 -0.7 30.8
22:55 1023 30.21 852 25.16 0.7 33.3 90 -0.7 30.7
23:00 1023 30.21 852 25.16 0.7 33.3 90 -0.7 30.7
23:05 1023 30.21 852 25.16 0.7 33.3 91 -0.6 30.8
23:10 1023 30.21 852 25.16 0.7 33.3 90 -0.7 30.7
23:15 1023 30.21 852 25.16 0.7 33.3 90 -0.7 30.7
23:20 1023 30.21 852 25.16 0.7 33.3 90 -0.8 30.6
23:25 1023 30.21 852 25.16 0.7 33.3 90 -0.8 30.6
23:30 1023 30.21 852 25.16 0.7 33.3 90 -0.8 30.6
23:35 1023 30.21 852 25.16 0.7 33.3 89 -0.8 30.5
23:40 1023 30.21 852 25.16 0.7 33.3 89 -0.9 30.3
23:45 1023 30.21 852 25.16 0.8 33.4 88 -1 30.2
23:50 1023 30.21 852 25.16 0.8 33.4 88 -1 30.2
23:55 1023 30.21 852 25.16 0.8 33.4 88 -1 30.1
24:00 1023 30.21 852 25.16 0.8 33.5 88 -0.9 30.3